Darstellungsparameter: Aktuell verwendete Einstellungen:
Skalierung der Graphiken ... ?
xyx+y,   Skalierungsfaktor:      Skalierung: Modus: x, Faktor: 1
Darstellungszeitraum ... ?
Vom - - bis: - -   Zeitraum: 23.02.2007 - 24.02.2008
Min/Max/Avg-Anzeige ... ?
Zeige MMA aktuell
Zeige MMA Monat
Zeige MMA alles
Zeige --A aktuell
Zeige --A Monat
Zeige --A alles
Keine MMA-Anzeige
MMA:
Average (ber die Originaldaten)
MMA-Basis: 23.02.2007 - 24.02.2008
Quicknavigation für Darstellung... ?
Tage:      1T, 2T, 3T, 5T -1T -2T -3T -5T +1T +2T +3T +5T
Wochen: 1W, 2W, 3W -1W -2W -3W +1W +2W +3W
Monate: 1M, 3M, 6M -1M -3M -6M +1M +3M +6M
Jahre:    1J, 3J, 5J, 10J -1J -3J -5J -10J +1J +3J +5J +10J
Nutze für die Darstellung ... ?
Originaldaten oder ...
Mittelwerte Minima Maxima auf...
Stundenbasis Tagesbasis Wochenbasis
Monatsbasis Jahresbasis      Datenbasis: Mittelwerte auf Tagesbasis
Darstellen als:
Statistik (Auto) Statistik J:M      Darstellung:

Der gewünschte Datumsbereich war nicht gültig/verfügbar und wurde korrigiert....


Zur Graphik,    zurück zur Übersicht aller Sensoren.
 
Tabellarische Datenbersicht: ?
 
Sensor: Nr:Datum:Temp:Abs-Feuchte:Windchill:Wind:
Aussen-T/F 1 24-02-2007 00:00:00 8.47917 C 6.6 g/m*3 8.48 C 0 km/h
2 25-02-2007 00:00:00 7.975 C 5.55 g/m*3 7.98 C 0 km/h
3 26-02-2007 00:00:00 6.53667 C 5.43 g/m*3 6.54 C 0 km/h
4 27-02-2007 00:00:00 6.38333 C 4.96 g/m*3 6.38 C 0 km/h
5 28-02-2007 00:00:00 10.44667 C 5.35 g/m*3 10.45 C 0 km/h
6 01-03-2007 00:00:00 9.04667 C 5.11 g/m*3 9.05 C 0 km/h
7 02-03-2007 00:00:00 6.77917 C 3.71 g/m*3 6.78 C 0 km/h
8 03-03-2007 00:00:00 6.66639 C 4.88 g/m*3 6.67 C 0 km/h
9 04-03-2007 00:00:00 7.69833 C 4.83 g/m*3 7.7 C 0 km/h
10 05-03-2007 00:00:00 10.24667 C 4.19 g/m*3 10.25 C 0 km/h
11 06-03-2007 00:00:00 9.76083 C 4.14 g/m*3 9.76 C 0 km/h
12 07-03-2007 00:00:00 9.16417 C 4.96 g/m*3 9.16 C 0 km/h
13 08-03-2007 00:00:00 7.035 C 4.54 g/m*3 7.04 C 0 km/h
14 09-03-2007 00:00:00 6.3175 C 4.84 g/m*3 6.32 C 0 km/h
15 10-03-2007 00:00:00 7.155 C 4.37 g/m*3 7.16 C 0 km/h
16 11-03-2007 00:00:00 7.3175 C 4.45 g/m*3 7.32 C 0 km/h
17 12-03-2007 00:00:00 8.52833 C 4.75 g/m*3 8.53 C 0 km/h
18 13-03-2007 00:00:00 9.0475 C 5.4 g/m*3 9.05 C 0 km/h
19 14-03-2007 00:00:00 10.57395 C 5.78 g/m*3 10.57 C 0 km/h
20 15-03-2007 00:00:00 8.44333 C 5.18 g/m*3 8.44 C 0 km/h
21 16-03-2007 00:00:00 7.8175 C 5.18 g/m*3 7.82 C 0 km/h
22 17-03-2007 00:00:00 8.70833 C 6.38 g/m*3 8.71 C 0 km/h
23 18-03-2007 00:00:00 7.715 C 5.51 g/m*3 7.72 C 0 km/h
24 19-03-2007 00:00:00 4.56333 C 4 g/m*3 4.56 C 0 km/h
25 20-03-2007 00:00:00 4.1325 C 4.47 g/m*3 4.13 C 0 km/h
Sensor: Nr:Datum:Temp:Abs-Feuchte:Windchill:Wind:
Aussen-T/F 26 21-03-2007 00:00:00 4.47417 C 4.53 g/m*3 4.47 C 0 km/h
27 22-03-2007 00:00:00 2.25667 C 5.17 g/m*3 2.26 C 0 km/h
28 23-03-2007 00:00:00 3.37333 C 5.31 g/m*3 3.37 C 0 km/h
29 24-03-2007 00:00:00 5.37333 C 6.27 g/m*3 5.37 C 0 km/h
30 25-03-2007 00:00:00 8.58101 C 5.72 g/m*3 8.58 C 0 km/h
31 26-03-2007 00:00:00 14.9957 C 4.93 g/m*3 15 C 0 km/h
32 27-03-2007 00:00:00 11.65 C 4.69 g/m*3 11.65 C 0 km/h
33 28-03-2007 00:00:00 11.65313 C 4.21 g/m*3 11.65 C 0 km/h
34 29-03-2007 00:00:00 9.75 C 5.52 g/m*3 9.75 C 0 km/h
35 30-03-2007 00:00:00 10.73785 C 6.65 g/m*3 10.74 C 0 km/h
36 31-03-2007 00:00:00 10.49618 C 6.1 g/m*3 10.5 C 0 km/h
37 01-04-2007 00:00:00 13.71707 C 4.51 g/m*3 13.72 C 0 km/h
38 02-04-2007 00:00:00 13.59583 C 4.59 g/m*3 13.6 C 0 km/h
39 03-04-2007 00:00:00 8.94861 C 4.81 g/m*3 8.95 C 0 km/h
40 04-04-2007 00:00:00 9.66076 C 3.85 g/m*3 9.66 C 0 km/h
41 05-04-2007 00:00:00 8.81528 C 4.24 g/m*3 8.82 C 0 km/h
42 06-04-2007 00:00:00 12.12431 C 6.2 g/m*3 12.12 C 0 km/h
43 07-04-2007 00:00:00 9.61533 C 5.4 g/m*3 9.62 C 0 km/h
44 08-04-2007 00:00:00 9.79306 C 5.37 g/m*3 9.79 C 0 km/h
45 09-04-2007 00:00:00 11.52465 C 5.47 g/m*3 11.52 C 0 km/h
46 10-04-2007 00:00:00 11.94688 C 6.26 g/m*3 11.95 C 0 km/h
47 11-04-2007 00:00:00 10.93697 C 6.87 g/m*3 10.94 C 0 km/h
48 12-04-2007 00:00:00 16.75 C 7.24 g/m*3 16.75 C 0 km/h
49 13-04-2007 00:00:00 19.17708 C 8 g/m*3 19.18 C 0 km/h
50 14-04-2007 00:00:00 21.16042 C 7.77 g/m*3 21.16 C 0 km/h
Sensor: Nr:Datum:Temp:Abs-Feuchte:Windchill:Wind:
Aussen-T/F 51 15-04-2007 00:00:00 20.80833 C 7.27 g/m*3 20.81 C 0 km/h
52 16-04-2007 00:00:00 19.4375 C 6.62 g/m*3 19.44 C 0 km/h
53 17-04-2007 00:00:00 14.74271 C 6.57 g/m*3 14.74 C 0 km/h
54 18-04-2007 00:00:00 11.07188 C 4.76 g/m*3 11.07 C 0 km/h
55 19-04-2007 00:00:00 11.67188 C 5.25 g/m*3 11.67 C 0 km/h
56 20-04-2007 00:00:00 12.26458 C 4.91 g/m*3 12.26 C 0 km/h
57 21-04-2007 00:00:00 11.89271 C 4.5 g/m*3 11.89 C 0 km/h
58 22-04-2007 00:00:00 15.65729 C 5.54 g/m*3 15.66 C 0 km/h
59 23-04-2007 00:00:00 17.48021 C 6.48 g/m*3 17.48 C 0 km/h
60 24-04-2007 00:00:00 20.85102 C 8.12 g/m*3 20.85 C 0 km/h
61 25-04-2007 00:00:00 22.135 C 8.68 g/m*3 22.14 C 0 km/h
62 26-04-2007 00:00:00 21.16 C 7.81 g/m*3 21.16 C 0 km/h
63 27-04-2007 00:00:00 20.46303 C 7.42 g/m*3 20.46 C 0 km/h
64 28-04-2007 00:00:00 20.92083 C 7.71 g/m*3 20.92 C 0 km/h
65 29-04-2007 00:00:00 19.75583 C 7.1 g/m*3 19.76 C 0 km/h
66 30-04-2007 00:00:00 16.78917 C 4.21 g/m*3 16.79 C 0 km/h
67 01-05-2007 00:00:00 16.47083 C 4.66 g/m*3 16.47 C 0 km/h
68 02-05-2007 00:00:00 16.09167 C 3.81 g/m*3 16.09 C 0 km/h
69 03-05-2007 00:00:00 17.355 C 5.15 g/m*3 17.36 C 0 km/h
70 04-05-2007 00:00:00 18.835 C 5.97 g/m*3 18.84 C 0 km/h
71 05-05-2007 00:00:00 17.5975 C 6.18 g/m*3 17.6 C 0 km/h
72 06-05-2007 00:00:00 16.51167 C 7.41 g/m*3 16.51 C 0 km/h
73 07-05-2007 00:00:00 15.5625 C 8.64 g/m*3 15.56 C 0 km/h
74 08-05-2007 00:00:00 14.1825 C 7.73 g/m*3 14.18 C 0 km/h
75 09-05-2007 00:00:00 12.76917 C 8.87 g/m*3 12.77 C 0 km/h
Sensor: Nr:Datum:Temp:Abs-Feuchte:Windchill:Wind:
Aussen-T/F 76 10-05-2007 00:00:00 17.70667 C 8.53 g/m*3 17.71 C 0 km/h
77 11-05-2007 00:00:00 15.535 C 6.56 g/m*3 15.54 C 0 km/h
78 12-05-2007 00:00:00 15.02689 C 7.96 g/m*3 15.03 C 0 km/h
79 13-05-2007 00:00:00 17.04333 C 8.98 g/m*3 17.04 C 0 km/h
80 14-05-2007 00:00:00 15.98917 C 7.81 g/m*3 15.99 C 0 km/h
81 15-05-2007 00:00:00 13.36917 C 7.46 g/m*3 13.37 C 0 km/h
82 16-05-2007 00:00:00 12.17917 C 7.6 g/m*3 12.18 C 0 km/h
83 17-05-2007 00:00:00 10.8525 C 7.97 g/m*3 10.85 C 0 km/h
84 18-05-2007 00:00:00 14.6325 C 8.23 g/m*3 14.63 C 0 km/h
85 19-05-2007 00:00:00 18.53583 C 10.39 g/m*3 18.54 C 0 km/h
86 20-05-2007 00:00:00 21.92667 C 9.73 g/m*3 21.93 C 0 km/h
87 21-05-2007 00:00:00 22.61667 C 11.44 g/m*3 22.62 C 0 km/h
88 22-05-2007 00:00:00 22.86667 C 11.78 g/m*3 22.87 C 0 km/h
89 23-05-2007 00:00:00 20.8675 C 11.32 g/m*3 20.87 C 0 km/h
90 24-05-2007 00:00:00 23.91417 C 11.42 g/m*3 23.91 C 0 km/h
91 25-05-2007 00:00:00 24.57059 C 11.78 g/m*3 24.57 C 0 km/h
92 26-05-2007 00:00:00 21.745 C 12.71 g/m*3 21.75 C 0 km/h
93 27-05-2007 00:00:00 17.5125 C 9.85 g/m*3 17.51 C 0 km/h
94 28-05-2007 00:00:00 12.24917 C 8.51 g/m*3 12.25 C 0 km/h
95 29-05-2007 00:00:00 11.033 C 7.93 g/m*3 11.03 C 0 km/h
96 30-05-2007 00:00:00 13.67465 C 6.29 g/m*3 13.67 C 0 km/h
97 31-05-2007 00:00:00 16.05139 C 8.28 g/m*3 16.05 C 0 km/h
98 01-06-2007 00:00:00 15.42361 C 9.57 g/m*3 15.42 C 0 km/h
99 02-06-2007 00:00:00 18.53611 C 9.82 g/m*3 18.54 C 0 km/h
100 03-06-2007 00:00:00 20.87083 C 10.1 g/m*3 20.87 C 0 km/h
Sensor: Nr:Datum:Temp:Abs-Feuchte:Windchill:Wind:
Aussen-T/F 101 04-06-2007 00:00:00 22.02361 C 10.59 g/m*3 22.02 C 0 km/h
102 05-06-2007 00:00:00 21.66389 C 10.23 g/m*3 21.66 C 0 km/h
103 06-06-2007 00:00:00 22.53889 C 10.59 g/m*3 22.54 C 0 km/h
104 07-06-2007 00:00:00 25.42222 C 11.36 g/m*3 25.42 C 0 km/h
105 08-06-2007 00:00:00 26.47639 C 11.42 g/m*3 26.48 C 0 km/h
106 09-06-2007 00:00:00 23.12917 C 12.28 g/m*3 23.13 C 0 km/h
107 10-06-2007 00:00:00 21.28889 C 12.55 g/m*3 21.29 C 0 km/h
108 11-06-2007 00:00:00 21.88068 C 11.9 g/m*3 21.88 C 0 km/h
109 12-06-2007 00:00:00 20.17167 C 11.8 g/m*3 20.17 C 0 km/h
110 13-06-2007 00:00:00 21.51176 C 10.38 g/m*3 21.51 C 0 km/h
111 14-06-2007 00:00:00 22.15833 C 12.13 g/m*3 22.16 C 0 km/h
112 15-06-2007 00:00:00 19.84667 C 11.6 g/m*3 19.85 C 0 km/h
113 16-06-2007 00:00:00 18.0125 C 9.3 g/m*3 18.01 C 0 km/h
114 17-06-2007 00:00:00 20.0125 C 9.63 g/m*3 20.01 C 0 km/h
115 18-06-2007 00:00:00 20.92583 C 11.23 g/m*3 20.93 C 0 km/h
116 19-06-2007 00:00:00 23.70833 C 11.18 g/m*3 23.71 C 0 km/h
117 20-06-2007 00:00:00 23.68667 C 12.04 g/m*3 23.69 C 0 km/h
118 21-06-2007 00:00:00 18.30167 C 12.42 g/m*3 18.3 C 0 km/h
119 22-06-2007 00:00:00 16.06417 C 10.95 g/m*3 16.06 C 0 km/h
120 23-06-2007 00:00:00 16.04167 C 10.56 g/m*3 16.04 C 0 km/h
121 24-06-2007 00:00:00 19.31667 C 10.02 g/m*3 19.32 C 0 km/h
122 25-06-2007 00:00:00 18.13667 C 10.86 g/m*3 18.14 C 0 km/h
123 26-06-2007 00:00:00 13.90667 C 8.35 g/m*3 13.91 C 0 km/h
124 27-06-2007 00:00:00 14.2225 C 6.63 g/m*3 14.22 C 0 km/h
125 28-06-2007 00:00:00 15.82833 C 7.44 g/m*3 15.83 C 0 km/h
Sensor: Nr:Datum:Temp:Abs-Feuchte:Windchill:Wind:
Aussen-T/F 126 29-06-2007 00:00:00 16.88417 C 8.32 g/m*3 16.88 C 0 km/h
127 30-06-2007 00:00:00 18.675 C 9.69 g/m*3 18.68 C 0 km/h
128 01-07-2007 00:00:00 20.8525 C 10.65 g/m*3 20.85 C 0 km/h
129 02-07-2007 00:00:00 19.54917 C 10.43 g/m*3 19.55 C 0 km/h
130 03-07-2007 00:00:00 15.42583 C 9.84 g/m*3 15.43 C 0 km/h
131 04-07-2007 00:00:00 15.17417 C 8.93 g/m*3 15.17 C 0 km/h
132 05-07-2007 00:00:00 15.1325 C 9.55 g/m*3 15.13 C 0 km/h
133 06-07-2007 00:00:00 17.63613 C 8.26 g/m*3 17.64 C 0 km/h
134 07-07-2007 00:00:00 18.55167 C 7.14 g/m*3 18.55 C 0 km/h
135 08-07-2007 00:00:00 19.8175 C 8.32 g/m*3 19.82 C 0 km/h
136 09-07-2007 00:00:00 17.15583 C 9.38 g/m*3 17.16 C 0 km/h
137 10-07-2007 00:00:00 14.66583 C 9.37 g/m*3 14.67 C 0 km/h
138 11-07-2007 00:00:00 14.37833 C 9.44 g/m*3 14.38 C 0 km/h
139 12-07-2007 00:00:00 17.7 C 9.66 g/m*3 17.7 C 0 km/h
140 13-07-2007 00:00:00 22.43167 C 11.88 g/m*3 22.43 C 0 km/h
141 14-07-2007 00:00:00 25.05 C 11.69 g/m*3 25.05 C 0 km/h
142 15-07-2007 00:00:00 27.2075 C 11.44 g/m*3 27.21 C 0 km/h
143 16-07-2007 00:00:00 26.8025 C 8.93 g/m*3 26.8 C 0 km/h
144 17-07-2007 00:00:00 25.11167 C 8.56 g/m*3 25.11 C 0 km/h
145 18-07-2007 00:00:00 22.78 C 9.2 g/m*3 22.78 C 0 km/h
146 19-07-2007 00:00:00 20.29333 C 11.02 g/m*3 20.29 C 0 km/h
147 20-07-2007 00:00:00 22.04917 C 12.14 g/m*3 22.05 C 0 km/h
148 21-07-2007 00:00:00 19.74917 C 9.69 g/m*3 19.75 C 0 km/h
149 22-07-2007 00:00:00 19.89917 C 8.33 g/m*3 19.9 C 0 km/h
150 23-07-2007 00:00:00 16.33333 C 10.14 g/m*3 16.33 C 0 km/h
Sensor: Nr:Datum:Temp:Abs-Feuchte:Windchill:Wind:
Aussen-T/F 151 24-07-2007 00:00:00 16.72667 C 9.48 g/m*3 16.73 C 0 km/h
152 25-07-2007 00:00:00 19.68571 C 8.82 g/m*3 19.69 C 0 km/h
153 26-07-2007 00:00:00 21.75583 C 9.38 g/m*3 21.76 C 0 km/h
154 27-07-2007 00:00:00 22.4675 C 8.25 g/m*3 22.47 C 0 km/h
155 28-07-2007 00:00:00 21.095 C 10.2 g/m*3 21.1 C 0 km/h
156 29-07-2007 00:00:00 17.3075 C 9.52 g/m*3 17.31 C 0 km/h
157 30-07-2007 00:00:00 14.66167 C 6.94 g/m*3 14.66 C 0 km/h
158 31-07-2007 00:00:00 15.68167 C 6.71 g/m*3 15.68 C 0 km/h
159 01-08-2007 00:00:00 18.53833 C 7.48 g/m*3 18.54 C 0 km/h
160 02-08-2007 00:00:00 18.3275 C 9.54 g/m*3 18.33 C 0 km/h
161 03-08-2007 00:00:00 19.78083 C 8.92 g/m*3 19.78 C 0 km/h
162 04-08-2007 00:00:00 21.05 C 8.85 g/m*3 21.05 C 0 km/h
163 05-08-2007 00:00:00 23.69833 C 9.12 g/m*3 23.7 C 0 km/h
164 06-08-2007 00:00:00 24.23417 C 9.32 g/m*3 24.23 C 0 km/h
165 07-08-2007 00:00:00 18.36167 C 12.63 g/m*3 18.36 C 0 km/h
166 08-08-2007 00:00:00 16.0175 C 11.01 g/m*3 16.02 C 0 km/h
167 09-08-2007 00:00:00 14.26667 C 11.55 g/m*3 14.27 C 0 km/h
168 10-08-2007 00:00:00 17.82833 C 13.5 g/m*3 17.83 C 0 km/h
169 11-08-2007 00:00:00 19.64083 C 11.07 g/m*3 19.64 C 0 km/h
170 12-08-2007 00:00:00 20.07417 C 10.09 g/m*3 20.07 C 0 km/h
171 13-08-2007 00:00:00 20.9175 C 10.13 g/m*3 20.92 C 0 km/h
172 14-08-2007 00:00:00 20.9275 C 9.64 g/m*3 20.93 C 0 km/h
173 15-08-2007 00:00:00 23.49917 C 12.92 g/m*3 23.5 C 0 km/h
174 16-08-2007 00:00:00 18.74667 C 10.51 g/m*3 18.75 C 0 km/h
175 17-08-2007 00:00:00 17.27833 C 8.08 g/m*3 17.28 C 0 km/h
Sensor: Nr:Datum:Temp:Abs-Feuchte:Windchill:Wind:
Aussen-T/F 176 18-08-2007 00:00:00 17.40917 C 8.03 g/m*3 17.41 C 0 km/h
177 19-08-2007 00:00:00 17.24583 C 9.91 g/m*3 17.25 C 0 km/h
178 20-08-2007 00:00:00 17.315 C 9.7 g/m*3 17.32 C 0 km/h
179 21-08-2007 00:00:00 15.4225 C 10.31 g/m*3 15.42 C 0 km/h
180 22-08-2007 00:00:00 15.95593 C 11.84 g/m*3 15.96 C 0 km/h
181 23-08-2007 00:00:00 17.7575 C 11.98 g/m*3 17.76 C 0 km/h
182 24-08-2007 00:00:00 19.43833 C 11.56 g/m*3 19.44 C 0 km/h
183 25-08-2007 00:00:00 21.42 C 11.91 g/m*3 21.42 C 0 km/h
184 26-08-2007 00:00:00 21.99167 C 12.1 g/m*3 21.99 C 0 km/h
185 27-08-2007 00:00:00 19.53583 C 8.84 g/m*3 19.54 C 0 km/h
186 28-08-2007 00:00:00 16.42167 C 8.1 g/m*3 16.42 C 0 km/h
187 29-08-2007 00:00:00 17.285 C 6.71 g/m*3 17.29 C 0 km/h
188 30-08-2007 00:00:00 15.3675 C 7.01 g/m*3 15.37 C 0 km/h
189 31-08-2007 00:00:00 17.5825 C 9.89 g/m*3 17.58 C 0 km/h
190 01-09-2007 00:00:00 17.1975 C 10.01 g/m*3 17.2 C 0 km/h
191 02-09-2007 00:00:00 17.35583 C 9 g/m*3 17.36 C 0 km/h
192 03-09-2007 00:00:00 15.74917 C 9.08 g/m*3 15.75 C 0 km/h
193 04-09-2007 00:00:00 12.88417 C 7.04 g/m*3 12.88 C 0 km/h
194 05-09-2007 00:00:00 12.6395 C 6.92 g/m*3 12.64 C 0 km/h
195 06-09-2007 00:00:00 15.00917 C 9.43 g/m*3 15.01 C 0 km/h
196 07-09-2007 00:00:00 15.9325 C 9.22 g/m*3 15.93 C 0 km/h
197 08-09-2007 00:00:00 15.13667 C 10.05 g/m*3 15.14 C 0 km/h
198 09-09-2007 00:00:00 15.125 C 9.17 g/m*3 15.13 C 0 km/h
199 10-09-2007 00:00:00 12.4075 C 8.68 g/m*3 12.41 C 0 km/h
200 11-09-2007 00:00:00 14.36833 C 8.61 g/m*3 14.37 C 0 km/h
Sensor: Nr:Datum:Temp:Abs-Feuchte:Windchill:Wind:
Aussen-T/F 201 12-09-2007 00:00:00 14.94417 C 8.54 g/m*3 14.94 C 0 km/h
202 13-09-2007 00:00:00 14.5175 C 8.49 g/m*3 14.52 C 0 km/h
203 14-09-2007 00:00:00 15.68417 C 8.62 g/m*3 15.68 C 0 km/h
204 15-09-2007 00:00:00 16.86917 C 8.24 g/m*3 16.87 C 0 km/h
205 16-09-2007 00:00:00 15.27 C 8.22 g/m*3 15.27 C 0 km/h
206 17-09-2007 00:00:00 16.68833 C 10.1 g/m*3 16.69 C 0 km/h
207 18-09-2007 00:00:00 11.46833 C 8.27 g/m*3 11.47 C 0 km/h
208 19-09-2007 00:00:00 10.3275 C 6.41 g/m*3 10.33 C 0 km/h
209 20-09-2007 00:00:00 13.68083 C 7.03 g/m*3 13.68 C 0 km/h
210 21-09-2007 00:00:00 14.35833 C 7.71 g/m*3 14.36 C 0 km/h
211 22-09-2007 00:00:00 15.97583 C 8.74 g/m*3 15.98 C 0 km/h
212 23-09-2007 00:00:00 17.80333 C 9.5 g/m*3 17.8 C 0 km/h
213 24-09-2007 00:00:00 16.95833 C 9.49 g/m*3 16.96 C 0 km/h
214 25-09-2007 00:00:00 12.91917 C 7.71 g/m*3 12.92 C 0 km/h
215 26-09-2007 00:00:00 12.2675 C 7.86 g/m*3 12.27 C 0 km/h
216 27-09-2007 00:00:00 10.19083 C 8.85 g/m*3 10.19 C 0 km/h
217 28-09-2007 00:00:00 12.50168 C 8.71 g/m*3 12.5 C 0 km/h
218 29-09-2007 00:00:00 13.54444 C 8.6 g/m*3 13.54 C 0 km/h
219 30-09-2007 00:00:00 14.59687 C 9.12 g/m*3 14.6 C 0 km/h
220 01-10-2007 00:00:00 14.70313 C 9.71 g/m*3 14.7 C 0 km/h
221 02-10-2007 00:00:00 17.235 C 11.49 g/m*3 17.24 C 0 km/h
222 03-10-2007 00:00:00 17.39188 C 11.47 g/m*3 17.39 C 0 km/h
223 04-10-2007 00:00:00 17.33653 C 11.53 g/m*3 17.34 C 0 km/h
224 05-10-2007 00:00:00 15.50646 C 8.72 g/m*3 15.51 C 0 km/h
225 06-10-2007 00:00:00 12.34042 C 7.59 g/m*3 12.34 C 0 km/h
Sensor: Nr:Datum:Temp:Abs-Feuchte:Windchill:Wind:
Aussen-T/F 226 07-10-2007 00:00:00 11.60813 C 7.69 g/m*3 11.61 C 0 km/h
227 08-10-2007 00:00:00 10.74021 C 7.53 g/m*3 10.74 C 0 km/h
228 09-10-2007 00:00:00 12.05052 C 8.1 g/m*3 12.05 C 0 km/h
229 10-10-2007 00:00:00 14.53875 C 8.04 g/m*3 14.54 C 0 km/h
230 11-10-2007 00:00:00 11.52958 C 7.34 g/m*3 11.53 C 0 km/h
231 12-10-2007 00:00:00 12.23271 C 8.24 g/m*3 12.23 C 0 km/h
232 13-10-2007 00:00:00 13.96146 C 7.82 g/m*3 13.96 C 0 km/h
233 14-10-2007 00:00:00 9.94958 C 6.47 g/m*3 9.95 C 0 km/h
234 15-10-2007 00:00:00 10.725 C 7.35 g/m*3 10.73 C 0 km/h
235 16-10-2007 00:00:00 13.70417 C 8.35 g/m*3 13.7 C 0 km/h
236 17-10-2007 00:00:00 11.78601 C 8.39 g/m*3 11.79 C 0 km/h
237 18-10-2007 00:00:00 9.70042 C 6.45 g/m*3 9.7 C 0 km/h
238 19-10-2007 00:00:00 7.65667 C 6.17 g/m*3 7.66 C 0 km/h
239 20-10-2007 00:00:00 3.38583 C 5.54 g/m*3 3.39 C 0 km/h
240 24-10-2007 00:00:00 7.63803 C 5.69 g/m*3 7.64 C 0 km/h
241 25-10-2007 00:00:00 8.51042 C 6.26 g/m*3 8.51 C 0 km/h
242 26-10-2007 00:00:00 8.8712 C 6.03 g/m*3 8.87 C 0 km/h
243 27-10-2007 00:00:00 8.5725 C 5.85 g/m*3 8.57 C 0 km/h
244 28-10-2007 00:00:00 9.1632 C 5.9 g/m*3 9.16 C 0 km/h
245 29-10-2007 00:00:00 8.77833 C 7.07 g/m*3 8.78 C 0 km/h
246 30-10-2007 00:00:00 8.70333 C 7.3 g/m*3 8.7 C 0 km/h
247 31-10-2007 00:00:00 6.43333 C 6.44 g/m*3 6.43 C 0 km/h
248 01-11-2007 00:00:00 5.77833 C 6.04 g/m*3 5.78 C 0 km/h
249 02-11-2007 00:00:00 10.20333 C 8.52 g/m*3 10.2 C 0 km/h
250 03-11-2007 00:00:00 11.76723 C 9.64 g/m*3 11.77 C 0 km/h
Sensor: Nr:Datum:Temp:Abs-Feuchte:Windchill:Wind:
Aussen-T/F 251 04-11-2007 00:00:00 10.35 C 6.84 g/m*3 10.35 C 0 km/h
252 05-11-2007 00:00:00 8.61333 C 5.38 g/m*3 8.61 C 0 km/h
253 06-11-2007 00:00:00 8.1225 C 5.88 g/m*3 8.12 C 0 km/h
254 07-11-2007 00:00:00 8.495 C 6.13 g/m*3 8.49 C 0 km/h
255 08-11-2007 00:00:00 9.85667 C 7.21 g/m*3 9.86 C 0 km/h
256 09-11-2007 00:00:00 5.16167 C 5.11 g/m*3 5.16 C 0 km/h
257 10-11-2007 00:00:00 6.29083 C 5.92 g/m*3 6.29 C 0 km/h
258 11-11-2007 00:00:00 7.75917 C 6.67 g/m*3 7.76 C 0 km/h
259 12-11-2007 00:00:00 5.1475 C 4.79 g/m*3 5.15 C 0 km/h
260 13-11-2007 00:00:00 3.98167 C 5.14 g/m*3 3.98 C 0 km/h
261 14-11-2007 00:00:00 2.72417 C 4.37 g/m*3 2.72 C 0 km/h
262 15-11-2007 00:00:00 1.3425 C 3.82 g/m*3 1.34 C 0 km/h
263 16-11-2007 00:00:00 -0.59167 C 3.84 g/m*3 -0.59 C 0 km/h
264 17-11-2007 00:00:00 3.35714 C 4.68 g/m*3 3.36 C 0 km/h
265 18-11-2007 00:00:00 3.3825 C 4.91 g/m*3 3.38 C 0 km/h
266 19-11-2007 00:00:00 2.57333 C 4.34 g/m*3 2.57 C 0 km/h
267 20-11-2007 00:00:00 5.33 C 4.59 g/m*3 5.33 C 0 km/h
268 21-11-2007 00:00:00 6.755 C 5.66 g/m*3 6.76 C 0 km/h
269 22-11-2007 00:00:00 7.93917 C 6.65 g/m*3 7.94 C 0 km/h
270 23-11-2007 00:00:00 6.7275 C 6.81 g/m*3 6.73 C 0 km/h
271 24-11-2007 00:00:00 2.76833 C 4.82 g/m*3 2.77 C 0 km/h
272 25-11-2007 00:00:00 4.25167 C 5.29 g/m*3 4.25 C 0 km/h
273 26-11-2007 00:00:00 3.9725 C 4.66 g/m*3 3.97 C 0 km/h
274 27-11-2007 00:00:00 4.23833 C 4.68 g/m*3 4.24 C 0 km/h
275 28-11-2007 00:00:00 0.0625 C 4.32 g/m*3 0.06 C 0 km/h
Sensor: Nr:Datum:Temp:Abs-Feuchte:Windchill:Wind:
Aussen-T/F 276 29-11-2007 00:00:00 1.3325 C 4.59 g/m*3 1.33 C 0 km/h
277 30-11-2007 00:00:00 5.76 C 5.7 g/m*3 5.76 C 0 km/h
278 01-12-2007 00:00:00 8.51345 C 5.82 g/m*3 8.51 C 0 km/h
279 02-12-2007 00:00:00 9.13667 C 6.27 g/m*3 9.14 C 0 km/h
280 03-12-2007 00:00:00 7.21167 C 4.97 g/m*3 7.21 C 0 km/h
281 04-12-2007 00:00:00 5.77583 C 5.61 g/m*3 5.78 C 0 km/h
282 05-12-2007 00:00:00 10.11667 C 7.2 g/m*3 10.12 C 0 km/h
283 06-12-2007 00:00:00 9.85667 C 6.67 g/m*3 9.86 C 0 km/h
284 07-12-2007 00:00:00 10.3625 C 6.09 g/m*3 10.36 C 0 km/h
285 08-12-2007 00:00:00 5.77917 C 4.69 g/m*3 5.78 C 0 km/h
286 09-12-2007 00:00:00 7.00333 C 5.75 g/m*3 7 C 0 km/h
287 10-12-2007 00:00:00 6.24167 C 6.16 g/m*3 6.24 C 0 km/h
288 11-12-2007 00:00:00 5.6775 C 5.39 g/m*3 5.68 C 0 km/h
289 12-12-2007 00:00:00 4.92417 C 5 g/m*3 4.92 C 0 km/h
290 13-12-2007 00:00:00 5.2125 C 4.36 g/m*3 5.21 C 0 km/h
291 14-12-2007 00:00:00 2.35798 C 2.96 g/m*3 2.36 C 0 km/h
292 15-12-2007 00:00:00 0.0325 C 2.86 g/m*3 0.03 C 0 km/h
293 16-12-2007 00:00:00 -2.92417 C 2.98 g/m*3 -2.92 C 0 km/h
294 17-12-2007 00:00:00 -1.06 C 2.85 g/m*3 -1.06 C 0 km/h
295 18-12-2007 00:00:00 -2.50833 C 3.14 g/m*3 -2.51 C 0 km/h
296 19-12-2007 00:00:00 -3.8675 C 3.09 g/m*3 -3.87 C 0 km/h
297 20-12-2007 00:00:00 -5.26417 C 2.9 g/m*3 -5.26 C 0 km/h
298 21-12-2007 00:00:00 -5.9625 C 2.72 g/m*3 -5.96 C 0 km/h
299 22-12-2007 00:00:00 -7.21833 C 2.43 g/m*3 -7.22 C 0 km/h
300 23-12-2007 00:00:00 -5.47333 C 2.81 g/m*3 -5.47 C 0 km/h
Sensor: Nr:Datum:Temp:Abs-Feuchte:Windchill:Wind:
Aussen-T/F 301 24-12-2007 00:00:00 -1.28333 C 4.01 g/m*3 -1.28 C 0 km/h
302 25-12-2007 00:00:00 -3.13917 C 3.2 g/m*3 -3.14 C 0 km/h
303 26-12-2007 00:00:00 -1.31513 C 3.83 g/m*3 -1.32 C 0 km/h
304 27-12-2007 00:00:00 2.63917 C 4.81 g/m*3 2.64 C 0 km/h
305 28-12-2007 00:00:00 4.575 C 5.27 g/m*3 4.58 C 0 km/h
306 29-12-2007 00:00:00 3.32667 C 4.84 g/m*3 3.33 C 0 km/h
307 30-12-2007 00:00:00 4.99167 C 5.24 g/m*3 4.99 C 0 km/h
308 31-12-2007 00:00:00 3.21667 C 5.19 g/m*3 3.22 C 0 km/h
309 01-01-2008 00:00:00 1.85083 C 4.52 g/m*3 1.85 C 0 km/h
310 02-01-2008 00:00:00 -1.72 C 3.21 g/m*3 -1.72 C 0 km/h
311 03-01-2008 00:00:00 -0.05667 C 2.87 g/m*3 -0.06 C 0 km/h
312 04-01-2008 00:00:00 0.27167 C 3.34 g/m*3 0.27 C 0 km/h
313 05-01-2008 00:00:00 5.0775 C 5.63 g/m*3 5.08 C 0 km/h
314 06-01-2008 00:00:00 3.95167 C 5.23 g/m*3 3.95 C 0 km/h
315 07-01-2008 00:00:00 5.63583 C 5.3 g/m*3 5.64 C 0 km/h
316 08-01-2008 00:00:00 4.45546 C 5.42 g/m*3 4.46 C 0 km/h
317 09-01-2008 00:00:00 4.03167 C 5.39 g/m*3 4.03 C 0 km/h
318 10-01-2008 00:00:00 6.32083 C 5.48 g/m*3 6.32 C 0 km/h
319 11-01-2008 00:00:00 9.6175 C 5.87 g/m*3 9.62 C 0 km/h
320 12-01-2008 00:00:00 6.39 C 5.01 g/m*3 6.39 C 0 km/h
321 13-01-2008 00:00:00 0.58167 C 4.26 g/m*3 0.58 C 0 km/h
322 14-01-2008 00:00:00 3.80833 C 4.9 g/m*3 3.81 C 0 km/h
323 15-01-2008 00:00:00 8.28833 C 5.12 g/m*3 8.29 C 0 km/h
324 16-01-2008 00:00:00 8.28667 C 5.35 g/m*3 8.29 C 0 km/h
325 17-01-2008 00:00:00 7.21833 C 5.52 g/m*3 7.22 C 0 km/h
Sensor: Nr:Datum:Temp:Abs-Feuchte:Windchill:Wind:
Aussen-T/F 326 18-01-2008 00:00:00 9.17667 C 6.31 g/m*3 9.18 C 0 km/h
327 19-01-2008 00:00:00 12.72353 C 7.44 g/m*3 12.72 C 0 km/h
328 20-01-2008 00:00:00 12.27333 C 6.9 g/m*3 12.27 C 0 km/h
329 21-01-2008 00:00:00 10.17403 C 5.8 g/m*3 10.17 C 0 km/h
330 22-01-2008 00:00:00 4.58605 C 4.01 g/m*3 4.59 C 0 km/h
331 23-01-2008 00:00:00 2.9125 C 3.92 g/m*3 2.91 C 0 km/h
332 24-01-2008 00:00:00 6.355 C 4.65 g/m*3 6.36 C 0 km/h
333 25-01-2008 00:00:00 3.72583 C 4.34 g/m*3 3.73 C 0 km/h
334 26-01-2008 00:00:00 5.43583 C 4.26 g/m*3 5.44 C 0 km/h
335 27-01-2008 00:00:00 5.64333 C 4.29 g/m*3 5.64 C 0 km/h
336 28-01-2008 00:00:00 7.44 C 5.19 g/m*3 7.44 C 0 km/h
337 29-01-2008 00:00:00 5.72167 C 4.29 g/m*3 5.72 C 0 km/h
338 30-01-2008 00:00:00 2.05833 C 4.71 g/m*3 2.06 C 0 km/h
339 31-01-2008 00:00:00 2.0958 C 3.82 g/m*3 2.1 C 0 km/h
340 01-02-2008 00:00:00 4.10167 C 4.83 g/m*3 4.1 C 0 km/h
341 02-02-2008 00:00:00 2.155 C 3.64 g/m*3 2.15 C 0 km/h
342 03-02-2008 00:00:00 0.64917 C 3.2 g/m*3 0.65 C 0 km/h
343 04-02-2008 00:00:00 4.5125 C 4.25 g/m*3 4.51 C 0 km/h
344 05-02-2008 00:00:00 6.43917 C 5.11 g/m*3 6.44 C 0 km/h
345 06-02-2008 00:00:00 8.675 C 5.72 g/m*3 8.68 C 0 km/h
346 07-02-2008 00:00:00 3.96333 C 4.24 g/m*3 3.96 C 0 km/h
347 08-02-2008 00:00:00 2.41167 C 3.87 g/m*3 2.41 C 0 km/h
348 09-02-2008 00:00:00 2.61833 C 3.61 g/m*3 2.62 C 0 km/h
349 10-02-2008 00:00:00 2.41333 C 3.74 g/m*3 2.41 C 0 km/h
350 11-02-2008 00:00:00 3.10083 C 4.4 g/m*3 3.1 C 0 km/h
Sensor: Nr:Datum:Temp:Abs-Feuchte:Windchill:Wind:
Aussen-T/F 351 12-02-2008 00:00:00 2.92667 C 4.49 g/m*3 2.93 C 0 km/h
352 13-02-2008 00:00:00 2.03193 C 4.33 g/m*3 2.03 C 0 km/h
353 14-02-2008 00:00:00 0.96667 C 4.4 g/m*3 0.97 C 0 km/h
354 15-02-2008 00:00:00 2.4125 C 3.13 g/m*3 2.41 C 0 km/h
355 16-02-2008 00:00:00 -0.75333 C 2.03 g/m*3 -0.75 C 0 km/h
356 17-02-2008 00:00:00 -1.21667 C 2.05 g/m*3 -1.22 C 0 km/h
357 18-02-2008 00:00:00 -0.28333 C 2.13 g/m*3 -0.28 C 0 km/h
358 19-02-2008 00:00:00 0.85417 C 2.54 g/m*3 0.85 C 0 km/h
359 20-02-2008 00:00:00 1.65 C 4.49 g/m*3 1.65 C 0 km/h
360 21-02-2008 00:00:00 6.5725 C 5.76 g/m*3 6.57 C 0 km/h
361 22-02-2008 00:00:00 9.70667 C 5.88 g/m*3 9.71 C 0 km/h
362 23-02-2008 00:00:00 9.48833 C 5.6 g/m*3 9.49 C 0 km/h

Maximal/Minimal-Werte vom 23.02.2007 - 24.02.2008

Sensor Min Max Avg
Temp
(Aussen-T/F)
-9.3 °C
22-12-2007  08:56:02
35.2 °C
15-07-2007  17:40:02
11.77 °C
Abs-Feuchte
(Aussen-T/F)
2.03 g/m*3
16-02-2008  00:00:00
13.5 g/m*3
10-08-2007  00:00:00
7.09 g/m*3
Windchill
(Aussen-T/F)
-7.22 C
22-12-2007  00:00:00
27.21 C
15-07-2007  00:00:00
11.8 C

Die Daten stammen von einer Davis Vantage Pro 2 Wetter-Station und werden unter Linux mit der Software wview2wettercgi und aufbereitet. Alle Angaben erfolgen ohne Gewähr für ihre Vollständigkeit oder Richtigkeit.
Kontakt: Rainer Krienke krienke@uni-koblenz.de . Meine Webseiten an der Uni Koblenz oder privat.
Version: $Revision: 0.78 $